createdAt,value
2018-04-07T00:00:19.123Z,1.8
2018-04-07T00:02:18.904Z,2.2
2018-04-07T00:04:18.698Z,1.5
2018-04-07T00:06:19.268Z,1.3
2018-04-07T00:08:19.074Z,2.3
2018-04-07T00:10:19.338Z,2.1
2018-04-07T00:12:19.123Z,1.7
2018-04-07T00:14:18.890Z,1.9
2018-04-07T00:16:19.085Z,1.8
2018-04-07T00:18:18.936Z,1.8
2018-04-07T00:20:18.920Z,1.6
2018-04-07T00:22:18.707Z,2.2
2018-04-07T00:24:19.475Z,1.7
2018-04-07T00:26:19.192Z,1.1
2018-04-07T00:28:18.977Z,1.5
2018-04-07T00:30:18.734Z,2
2018-04-07T00:32:19.418Z,1.5
2018-04-07T00:34:19.210Z,1.2
2018-04-07T00:36:19.093Z,1.8
2018-04-07T00:38:18.877Z,1.3
2018-04-07T00:40:19.087Z,1.8
2018-04-07T00:42:18.648Z,2.2
2018-04-07T00:44:19.416Z,1.3
2018-04-07T00:46:19.035Z,1.5
2018-04-07T00:48:18.810Z,1.4
2018-04-07T00:50:18.572Z,1.6
2018-04-07T00:52:19.343Z,1.8
2018-04-07T00:54:19.117Z,0.9
2018-04-07T00:56:18.545Z,1.6
2018-04-07T00:58:19.300Z,1.1
2018-04-07T01:00:19.158Z,2
2018-04-07T01:02:18.954Z,1.4
2018-04-07T01:04:18.715Z,2.3
2018-04-07T01:06:18.831Z,1.8
2018-04-07T01:08:18.607Z,1.5
2018-04-07T01:10:18.868Z,1.2
2018-04-07T01:12:18.651Z,1.8
2018-04-07T01:14:19.413Z,1.7
2018-04-07T01:16:18.572Z,0.7
2018-04-07T01:18:19.398Z,0.9
2018-04-07T01:20:19.241Z,1
2018-04-07T01:22:18.759Z,1.3
2018-04-07T01:24:18.509Z,1.6
2018-04-07T01:26:18.588Z,2.3
2018-04-07T01:28:19.346Z,0.7
2018-04-07T01:30:19.124Z,1.3
2018-04-07T01:32:18.862Z,1.3
2018-04-07T01:34:18.655Z,2
2018-04-07T01:36:19.269Z,1.6
2018-04-07T01:38:19.034Z,1.4
2018-04-07T01:40:19.257Z,1.4
2018-04-07T01:42:19.350Z,1.5
2018-04-07T01:44:19.111Z,1.4
2018-04-07T01:46:19.188Z,1.9
2018-04-07T01:48:18.964Z,1.3
2018-04-07T01:50:18.768Z,1.4
2018-04-07T01:52:18.820Z,2
2018-04-07T01:54:18.596Z,1.5
2018-04-07T01:56:18.776Z,1.1
2018-04-07T01:58:18.548Z,1.8
2018-04-07T02:00:19.305Z,1.2
2018-04-07T02:02:18.550Z,2
2018-04-07T02:04:19.303Z,1.5
2018-04-07T02:06:19.385Z,1.6
2018-04-07T02:08:19.172Z,1.5
2018-04-07T02:10:19.412Z,1.7
2018-04-07T02:12:19.174Z,1
2018-04-07T02:14:18.970Z,2.2
2018-04-07T02:16:19.226Z,1.8
2018-04-07T02:18:19.066Z,2.2
2018-04-07T02:20:18.884Z,1.8
2018-04-07T02:22:18.647Z,1.5
2018-04-07T02:24:19.403Z,2.1
2018-04-07T02:26:18.989Z,1.6
2018-04-07T02:28:18.744Z,2.2
2018-04-07T02:30:18.576Z,1.8
2018-04-07T02:32:19.361Z,1.8
2018-04-07T02:34:19.138Z,1.8
2018-04-07T02:36:18.824Z,1.7
2018-04-07T02:38:18.587Z,1.8
2018-04-07T02:40:18.845Z,1.6
2018-04-07T02:42:18.632Z,1.4
2018-04-07T02:44:19.396Z,1.8
2018-04-07T02:46:18.528Z,1.8
2018-04-07T02:48:19.312Z,2.2
2018-04-07T02:50:19.186Z,1.7
2018-04-07T02:52:19.078Z,1.3
2018-04-07T02:54:18.841Z,1.8
2018-04-07T02:56:18.816Z,2.5
2018-04-07T02:58:18.583Z,2.2
2018-04-07T03:00:19.447Z,2.1
2018-04-07T03:02:19.227Z,2.1
2018-04-07T03:04:18.983Z,2.5
2018-04-07T03:06:18.687Z,2.1
2018-04-07T03:08:19.456Z,2.6
2018-04-07T03:10:18.758Z,2.1
2018-04-07T03:12:18.526Z,2.2
2018-04-07T03:14:19.306Z,1.8
2018-04-07T03:16:18.896Z,2.7
2018-04-07T03:18:18.756Z,2.2
2018-04-07T03:20:18.503Z,2.1
2018-04-07T03:22:19.277Z,2.2
2018-04-07T03:24:19.056Z,2.4
2018-04-07T03:26:19.173Z,2.1
2018-04-07T03:28:18.949Z,1.9
2018-04-07T03:30:18.708Z,2
2018-04-07T03:32:19.478Z,2.5
2018-04-07T03:34:19.213Z,2.4
2018-04-07T03:36:19.317Z,2.4
2018-04-07T03:38:19.090Z,2
2018-04-07T03:40:19.367Z,2
2018-04-07T03:42:19.127Z,2.1
2018-04-07T03:44:18.890Z,1.8
2018-04-07T03:46:18.946Z,2.1
2018-04-07T03:48:18.744Z,2.8
2018-04-07T03:50:18.501Z,2.2
2018-04-07T03:52:19.264Z,2.2
2018-04-07T03:54:19.042Z,2.5
2018-04-07T03:56:19.170Z,3
2018-04-07T03:58:18.926Z,2.4
2018-04-07T04:00:18.715Z,2.1
2018-04-07T04:02:18.912Z,2.8
2018-04-07T04:04:18.672Z,2.4
2018-04-07T04:06:18.898Z,1.7
2018-04-07T04:08:18.666Z,2.7
2018-04-07T04:10:18.906Z,2.7
2018-04-07T04:12:18.664Z,2.2
2018-04-07T04:14:19.445Z,2
2018-04-07T04:16:19.245Z,2.7
2018-04-07T04:18:19.095Z,2.5
2018-04-07T04:20:18.878Z,2.6
2018-04-07T04:22:18.635Z,2.1
2018-04-07T04:24:19.382Z,2.1
2018-04-07T04:26:19.161Z,2.5
2018-04-07T04:28:18.964Z,2.3
2018-04-07T04:30:18.747Z,1.9
2018-04-07T04:32:18.526Z,3.1
2018-04-07T04:34:19.292Z,3.3
2018-04-07T04:36:19.085Z,2.2
2018-04-07T04:38:18.846Z,2.3
2018-04-07T04:40:19.080Z,2.4
2018-04-07T04:42:18.850Z,3.2
2018-04-07T04:44:18.630Z,2.2
2018-04-07T04:46:19.314Z,2.3
2018-04-07T04:48:19.107Z,2.8
2018-04-07T04:50:18.885Z,2.5
2018-04-07T04:52:18.625Z,2.8
2018-04-07T04:54:19.384Z,1.8
2018-04-07T04:56:19.114Z,2.3
2018-04-07T04:58:18.882Z,2.9
2018-04-07T05:00:18.628Z,2.8
2018-04-07T05:02:19.388Z,2.7
2018-04-07T05:04:19.146Z,2.4
2018-04-07T05:06:19.445Z,2.7
2018-04-07T05:08:19.210Z,3.5
2018-04-07T05:10:19.459Z,2.7
2018-04-07T05:12:19.258Z,2.9
2018-04-07T05:14:19.052Z,3
2018-04-07T05:16:18.866Z,2.4
2018-04-07T05:18:18.710Z,3.1
2018-04-07T05:20:19.478Z,2.8
2018-04-07T05:22:19.250Z,2
2018-04-07T05:24:19.029Z,3.1
2018-04-07T05:26:19.072Z,3.1
2018-04-07T05:28:18.855Z,2.4
2018-04-07T05:30:18.643Z,3.3
2018-04-07T05:32:19.411Z,2.9
2018-04-07T05:34:19.160Z,3
2018-04-07T05:36:18.755Z,3.3
2018-04-07T05:38:18.540Z,2.1
2018-04-07T05:40:18.803Z,2.5
2018-04-07T05:42:18.583Z,3.2
2018-04-07T05:44:19.345Z,2.7
2018-04-07T05:46:18.952Z,3.4
2018-04-07T05:48:18.737Z,3.2
2018-04-07T05:50:18.498Z,2.9
2018-04-07T05:52:19.271Z,3.1
2018-04-07T05:54:19.045Z,3
2018-04-07T05:56:18.725Z,3.2
2018-04-07T05:58:19.490Z,3.1
2018-04-07T06:00:19.265Z,3.4
2018-04-07T06:02:19.070Z,2.5
2018-04-07T06:04:18.825Z,3.4
2018-04-07T06:06:19.381Z,2.9
2018-04-07T06:08:19.163Z,3.1
2018-04-07T06:10:19.436Z,2.8
2018-04-07T06:12:19.183Z,1.9
2018-04-07T06:14:19.026Z,2.8
2018-04-07T06:16:19.192Z,2.9
2018-04-07T06:18:19.050Z,3.6
2018-04-07T06:20:18.829Z,3.3
2018-04-07T06:22:18.600Z,2.6
2018-04-07T06:24:19.390Z,2.5
2018-04-07T06:26:18.670Z,2.8
2018-04-07T06:28:19.408Z,3.3
2018-04-07T06:30:19.178Z,2.4
2018-04-07T06:32:18.949Z,2.5
2018-04-07T06:34:18.707Z,2.6
2018-04-07T06:36:19.022Z,2.6
2018-04-07T06:38:18.796Z,2.8
2018-04-07T06:40:19.034Z,2.9
2018-04-07T06:42:18.788Z,2.7
2018-04-07T06:44:18.590Z,2.7
2018-04-07T06:46:19.184Z,3.8
2018-04-07T06:48:18.975Z,3
2018-04-07T06:50:18.862Z,2.9
2018-04-07T06:52:18.649Z,2.4
2018-04-07T06:54:19.401Z,2.3
2018-04-07T06:56:19.080Z,2.5
2018-04-07T06:58:18.837Z,3.2
2018-04-07T07:00:18.591Z,3.2
2018-04-07T07:02:19.376Z,2.9
2018-04-07T07:04:19.152Z,2.3
2018-04-07T07:06:19.355Z,2.3
2018-04-07T07:08:19.116Z,2.6
2018-04-07T07:10:19.359Z,4.1
2018-04-07T07:12:19.013Z,3
2018-04-07T07:14:18.783Z,2.8
2018-04-07T07:16:18.990Z,2.2
2018-04-07T07:18:18.846Z,3.3
2018-04-07T07:20:18.779Z,3.2
2018-04-07T07:22:18.531Z,2.7
2018-04-07T07:24:19.329Z,3
2018-04-07T07:26:18.601Z,2.7
2018-04-07T07:28:19.380Z,2.4
2018-04-07T07:30:19.150Z,2.8
2018-04-07T07:32:18.920Z,3.3
2018-04-07T07:34:18.685Z,2.7
2018-04-07T07:36:18.582Z,2.8
2018-04-07T07:38:19.366Z,2.4
2018-04-07T07:40:18.646Z,1.9
2018-04-07T07:42:19.440Z,2.3
2018-04-07T07:44:19.216Z,3.5
2018-04-07T07:46:18.493Z,2.2
2018-04-07T07:48:19.283Z,4.5
2018-04-07T07:50:19.115Z,3.1
2018-04-07T07:52:18.884Z,3.3
2018-04-07T07:54:18.670Z,2
2018-04-07T07:56:18.764Z,2.9
2018-04-07T07:58:18.545Z,3.4
2018-04-07T08:00:19.334Z,3.2
2018-04-07T08:02:19.115Z,2.7
2018-04-07T08:04:18.887Z,3.9
2018-04-07T08:06:19.484Z,1.8
2018-04-07T08:08:19.285Z,2.3
2018-04-07T08:10:18.655Z,2.7
2018-04-07T08:12:19.426Z,2.2
2018-04-07T08:14:19.226Z,3.3
2018-04-07T08:16:18.628Z,2
2018-04-07T08:18:19.468Z,3
2018-04-07T08:20:19.231Z,3.2
2018-04-07T08:22:19.023Z,3
2018-04-07T08:24:18.820Z,2.9
2018-04-07T08:26:18.956Z,2.6
2018-04-07T08:28:18.731Z,2.4
2018-04-07T08:30:18.659Z,2.5
2018-04-07T08:32:19.445Z,2.8
2018-04-07T08:34:19.232Z,2.1
2018-04-07T08:36:19.039Z,2.4
2018-04-07T08:38:18.805Z,3.2
2018-04-07T08:40:19.164Z,2.8
2018-04-07T08:42:18.962Z,2.9
2018-04-07T08:44:18.745Z,3.5
2018-04-07T08:46:18.915Z,3.1
2018-04-07T08:48:18.731Z,2.7
2018-04-07T08:50:18.526Z,2.2
2018-04-07T08:52:19.320Z,2.9
2018-04-07T08:54:19.104Z,2.4
2018-04-07T08:56:18.838Z,2.4
2018-04-07T08:58:18.628Z,2.3
2018-04-07T09:00:19.409Z,2.3
2018-04-07T09:02:19.188Z,3.2
2018-04-07T09:04:18.973Z,3.9
2018-04-07T09:06:18.681Z,2.7
2018-04-07T09:08:19.454Z,3.3
2018-04-07T09:10:18.731Z,3.5
2018-04-07T09:12:19.505Z,2.3
2018-04-07T09:14:19.324Z,1.9
2018-04-07T09:16:19.480Z,3.6
2018-04-07T09:18:19.350Z,2.4
2018-04-07T09:20:19.144Z,2.8
2018-04-07T09:22:18.937Z,2.4
2018-04-07T09:24:18.723Z,3.5
2018-04-07T09:26:19.341Z,2.8
2018-04-07T09:28:19.126Z,2.5
2018-04-07T09:30:18.948Z,2.4
2018-04-07T09:32:18.748Z,2.6
2018-04-07T09:34:18.537Z,1.8
2018-04-07T09:36:19.139Z,2.8
2018-04-07T09:38:18.918Z,3.3
2018-04-07T09:40:19.247Z,2.6
2018-04-07T09:42:18.858Z,3.3
2018-04-07T09:44:18.672Z,2.3
2018-04-07T09:46:19.345Z,2.5
2018-04-07T09:48:19.128Z,3
2018-04-07T09:50:18.935Z,2.2
2018-04-07T09:52:18.703Z,3.2
2018-04-07T09:54:19.497Z,2.8
2018-04-07T09:56:19.089Z,2.7
2018-04-07T09:58:18.865Z,2
2018-04-07T10:00:18.659Z,3.1
2018-04-07T10:02:19.462Z,3.4
2018-04-07T10:04:19.284Z,2.8
2018-04-07T10:06:18.877Z,2.9
2018-04-07T10:08:18.683Z,2.5
2018-04-07T10:10:19.024Z,2.3
2018-04-07T10:12:19.100Z,2.9
2018-04-07T10:14:18.887Z,3
2018-04-07T10:16:18.982Z,2.8
2018-04-07T10:18:18.872Z,2.8
2018-04-07T10:20:18.666Z,2.9
2018-04-07T10:22:19.483Z,2.8
2018-04-07T10:24:19.274Z,2.4
2018-04-07T10:26:19.434Z,3.2
2018-04-07T10:28:19.213Z,2.7
2018-04-07T10:30:19.020Z,3.4
2018-04-07T10:32:18.784Z,3.2
2018-04-07T10:34:18.598Z,2.1
2018-04-07T10:36:18.984Z,2.5
2018-04-07T10:38:18.885Z,2.6
2018-04-07T10:40:19.158Z,2.3
2018-04-07T10:42:18.866Z,2.6
2018-04-07T10:44:18.664Z,3
2018-04-07T10:46:18.877Z,3
2018-04-07T10:48:18.677Z,3.6
2018-04-07T10:50:19.478Z,2.7
2018-04-07T10:52:19.311Z,3
2018-04-07T10:54:19.121Z,2.5
2018-04-07T10:56:19.236Z,3
2018-04-07T10:58:19.064Z,2.8
2018-04-07T11:00:18.850Z,2.4
2018-04-07T11:02:18.623Z,2.9
2018-04-07T11:04:19.396Z,3.1
2018-04-07T11:06:18.956Z,2.8
2018-04-07T11:08:18.773Z,2.6
2018-04-07T11:10:19.073Z,2.2
2018-04-07T11:12:18.880Z,3.1
2018-04-07T11:14:18.684Z,2.3
2018-04-07T11:16:18.870Z,2.5
2018-04-07T11:18:18.811Z,2.5
2018-04-07T11:20:18.678Z,2.4
2018-04-07T11:22:19.490Z,2.2
2018-04-07T11:24:19.312Z,2
2018-04-07T11:26:19.082Z,2.4
2018-04-07T11:28:18.899Z,1.8
2018-04-07T11:30:18.728Z,2.1
2018-04-07T11:32:18.535Z,2.5
2018-04-07T11:34:19.339Z,1.7
2018-04-07T11:36:18.568Z,2.7
2018-04-07T11:38:19.357Z,2.6
2018-04-07T11:40:18.658Z,2.2
2018-04-07T11:42:19.485Z,2.4
2018-04-07T11:44:19.282Z,1.4
2018-04-07T11:46:19.086Z,1.9
2018-04-07T11:48:18.864Z,1.8
2018-04-07T11:50:18.666Z,1.7
2018-04-07T11:52:19.503Z,1.7
2018-04-07T11:54:19.289Z,1.7
2018-04-07T11:56:18.854Z,2.4
2018-04-07T11:58:18.639Z,1.8
2018-04-07T12:00:19.461Z,2.5
2018-04-07T12:02:19.371Z,1.2
2018-04-07T12:04:19.316Z,2.2
2018-04-07T12:06:18.666Z,2.5
2018-04-07T12:08:19.491Z,1.9
2018-04-07T12:10:18.857Z,1.5
2018-04-07T12:12:18.681Z,1.6
2018-04-07T12:14:19.464Z,1.8
2018-04-07T12:16:19.166Z,1.9
2018-04-07T12:18:19.072Z,1.8
2018-04-07T12:20:18.966Z,1.8
2018-04-07T12:22:18.771Z,1.1
2018-04-07T12:24:18.604Z,1.4
2018-04-07T12:26:18.787Z,1.7
2018-04-07T12:28:18.609Z,1.8
2018-04-07T12:30:19.468Z,2
2018-04-07T12:32:18.268Z,1.8
2018-04-07T12:34:19.078Z,1.7
2018-04-07T12:36:18.223Z,1.6
2018-04-07T12:38:19.046Z,2.4
2018-04-07T12:40:18.372Z,1.9
2018-04-07T12:42:18.213Z,1.9
2018-04-07T12:44:18.046Z,1.7
2018-04-07T12:46:17.595Z,2.3
2018-04-07T12:48:18.409Z,2.5
2018-04-07T12:50:18.266Z,1.8
2018-04-07T12:52:18.273Z,1.5
2018-04-07T12:54:18.086Z,1.3
2018-04-07T12:56:18.212Z,1.9
2018-04-07T12:58:18.051Z,2.1
2018-04-07T13:00:17.862Z,1.9
2018-04-07T13:02:17.699Z,1.9
2018-04-07T13:04:18.548Z,1.9
2018-04-07T13:06:18.501Z,1.3
2018-04-07T13:08:18.342Z,2.7
2018-04-07T13:10:17.653Z,1.8
2018-04-07T13:12:18.495Z,1.7
2018-04-07T13:14:18.322Z,1.2
2018-04-07T13:16:18.510Z,1.6
2018-04-07T13:18:18.410Z,1.7
2018-04-07T13:20:18.220Z,1
2018-04-07T13:22:18.055Z,1.4
2018-04-07T13:24:17.893Z,2.1
2018-04-07T13:26:18.262Z,1.8
2018-04-07T13:28:18.094Z,3.4
2018-04-07T13:30:17.944Z,1.5
2018-04-07T13:32:18.125Z,2.1
2018-04-07T13:34:17.945Z,1.4
2018-04-07T13:36:18.100Z,2
2018-04-07T13:38:17.926Z,1.6
2018-04-07T13:40:18.253Z,2.4
2018-04-07T13:42:18.121Z,2.4
2018-04-07T13:44:17.986Z,1.9
2018-04-07T13:46:18.537Z,2.2
2018-04-07T13:48:18.380Z,1.7
2018-04-07T13:50:18.238Z,2
2018-04-07T13:52:18.079Z,1.6
2018-04-07T13:54:17.934Z,1.7
2018-04-07T13:56:17.704Z,2.6
2018-04-07T13:58:17.562Z,2
2018-04-07T14:00:18.405Z,2.3
2018-04-07T14:02:18.143Z,2.1
2018-04-07T14:04:17.982Z,2
2018-04-07T14:06:18.183Z,1.5
2018-04-07T14:08:18.047Z,1.5
2018-04-07T14:10:18.382Z,1.7
2018-04-07T14:12:18.213Z,1.6
2018-04-07T14:14:18.080Z,2
2018-04-07T14:16:17.753Z,2
2018-04-07T14:18:17.669Z,1.6
2018-04-07T14:20:18.566Z,1.1
2018-04-07T14:22:18.407Z,1.5
2018-04-07T14:24:18.265Z,1.6
2018-04-07T14:26:17.721Z,1.8
2018-04-07T14:28:17.570Z,1.5
2018-04-07T14:30:18.431Z,1.3
2018-04-07T14:32:18.266Z,1.7
2018-04-07T14:34:18.118Z,1.8
2018-04-07T14:36:17.854Z,1.6
2018-04-07T14:38:17.735Z,1.9
2018-04-07T14:40:18.129Z,1.7
2018-04-07T14:42:17.671Z,1.6
2018-04-07T14:44:18.536Z,1.6
2018-04-07T14:46:18.283Z,1.4
2018-04-07T14:48:18.140Z,1.7
2018-04-07T14:50:18.217Z,1.4
2018-04-07T14:52:18.072Z,2.1
2018-04-07T14:54:17.916Z,1.7
2018-04-07T14:56:18.063Z,2.2
2018-04-07T14:58:17.933Z,1.8
2018-04-07T15:00:17.842Z,1.5
2018-04-07T15:02:17.725Z,1.9
2018-04-07T15:04:17.587Z,2.3
2018-04-07T15:06:18.232Z,1.6
2018-04-07T15:08:18.108Z,2
2018-04-07T15:10:18.456Z,1.4
2018-04-07T15:12:18.148Z,1.8
2018-04-07T15:14:17.999Z,1.4
2018-04-07T15:16:18.293Z,2
2018-04-07T15:18:18.237Z,1.5
2018-04-07T15:20:18.097Z,1.1
2018-04-07T15:22:17.947Z,1.4
2018-04-07T15:24:17.807Z,1.5
2018-04-07T15:26:18.448Z,1.6
2018-04-07T15:28:18.308Z,1.7
2018-04-07T15:30:18.143Z,1.7
2018-04-07T15:32:17.838Z,1.8
2018-04-07T15:34:17.699Z,2.2
2018-04-07T15:36:18.154Z,1.9
2018-04-07T15:38:18.025Z,1.9
2018-04-07T15:40:18.352Z,2.3
2018-04-07T15:42:18.194Z,1.7
2018-04-07T15:44:18.062Z,1.8
2018-04-07T15:46:17.825Z,2.1
2018-04-07T15:48:17.683Z,1.6
2018-04-07T15:50:18.548Z,1.7
2018-04-07T15:52:18.216Z,1.4
2018-04-07T15:54:18.050Z,1.3
2018-04-07T15:56:17.736Z,1.5
2018-04-07T15:58:17.580Z,3
2018-04-07T16:00:18.424Z,2
2018-04-07T16:02:17.589Z,2.9
2018-04-07T16:04:18.440Z,1.9
2018-04-07T16:06:18.104Z,1.9
2018-04-07T16:08:17.951Z,1.5
2018-04-07T16:10:18.253Z,2
2018-04-07T16:12:18.072Z,2
2018-04-07T16:14:17.892Z,1.7
2018-04-07T16:16:18.098Z,3.6
2018-04-07T16:18:17.995Z,2.7
2018-04-07T16:20:17.804Z,2
2018-04-07T16:22:17.630Z,2.1
2018-04-07T16:24:18.460Z,2.5
2018-04-07T16:26:18.249Z,2.2
2018-04-07T16:28:18.089Z,1.8
2018-04-07T16:30:17.954Z,1.5
2018-04-07T16:32:17.774Z,1.2
2018-04-07T16:34:17.587Z,1.6
2018-04-07T16:36:18.244Z,1.5
2018-04-07T16:38:18.080Z,1.5
2018-04-07T16:40:18.405Z,1.5
2018-04-07T16:42:18.228Z,2.4
2018-04-07T16:44:18.060Z,3.3
2018-04-07T16:46:18.052Z,1.6
2018-04-07T16:48:17.881Z,1.3
2018-04-07T16:50:17.718Z,1.5
2018-04-07T16:52:17.888Z,1.7
2018-04-07T16:54:17.683Z,1.5
2018-04-07T16:56:18.372Z,2.1
2018-04-07T16:58:18.229Z,1.9
2018-04-07T17:00:18.125Z,1.9
2018-04-07T17:02:17.959Z,1.5
2018-04-07T17:04:17.771Z,1.2
2018-04-07T17:06:18.441Z,1.3
2018-04-07T17:08:18.266Z,1.3
2018-04-07T17:10:17.776Z,1.7
2018-04-07T17:12:17.597Z,2.3
2018-04-07T17:14:18.405Z,2.1
2018-04-07T17:16:18.260Z,2.1
2018-04-07T17:18:18.208Z,2.6
2018-04-07T17:20:18.105Z,1.7
2018-04-07T17:22:17.925Z,3.5
2018-04-07T17:24:17.735Z,3.2
2018-04-07T17:26:18.438Z,4
2018-04-07T17:28:18.249Z,6.3
2018-04-07T17:30:18.080Z,7
2018-04-07T17:32:17.882Z,6.8
2018-04-07T17:34:17.714Z,9.8
2018-04-07T17:36:17.903Z,5.4
2018-04-07T17:38:18.747Z,3.3
2018-04-07T17:40:18.230Z,1.8
2018-04-07T17:42:18.039Z,1.9
2018-04-07T17:44:17.843Z,1.7
2018-04-07T17:46:18.468Z,1.7
2018-04-07T17:48:18.261Z,1.3
2018-04-07T17:50:18.091Z,2
2018-04-07T17:52:18.276Z,2
2018-04-07T17:54:18.093Z,2.1
2018-04-07T17:56:18.421Z,2.1
2018-04-07T17:58:19.244Z,2.4
2018-04-07T18:00:18.100Z,2.2
2018-04-07T18:02:17.917Z,2.5
2018-04-07T18:04:17.733Z,3.1
2018-04-07T18:06:19.369Z,2.4
2018-04-07T18:08:18.201Z,2.2
2018-04-07T18:10:18.500Z,2.6
2018-04-07T18:12:18.640Z,2.4
2018-04-07T18:14:18.458Z,2.8
2018-04-07T18:16:19.164Z,3.1
2018-04-07T18:18:19.087Z,2.2
2018-04-07T18:20:18.977Z,2.3
2018-04-07T18:22:19.436Z,2.9
2018-04-07T18:24:18.255Z,2.3
2018-04-07T18:26:18.560Z,3.9
2018-04-07T18:28:18.378Z,3.8
2018-04-07T18:30:19.180Z,3.5
2018-04-07T18:32:18.017Z,4.5
2018-04-07T18:34:17.841Z,6.9
2018-04-07T18:36:19.114Z,3.4
2018-04-07T18:38:18.945Z,3.8
2018-04-07T18:40:19.250Z,3.5
2018-04-07T18:42:19.064Z,3.9
2018-04-07T18:44:18.864Z,5.4
2018-04-07T18:46:17.635Z,5
2018-04-07T18:48:18.480Z,5.5
2018-04-07T18:50:19.274Z,5.6
2018-04-07T18:52:19.096Z,4.7
2018-04-07T18:54:18.876Z,6.5
2018-04-07T18:56:18.974Z,5.4
2018-04-07T18:58:18.763Z,4.9
2018-04-07T19:00:18.585Z,5.2
2018-04-07T19:02:19.389Z,3.8
2018-04-07T19:04:19.250Z,5.2
2018-04-07T19:06:19.461Z,4.4
2018-04-07T19:08:19.271Z,4.2
2018-04-07T19:10:18.623Z,4.5
2018-04-07T19:12:19.447Z,4.1
2018-04-07T19:14:19.284Z,4.4
2018-04-07T19:16:18.850Z,5.5
2018-04-07T19:18:18.728Z,5
2018-04-07T19:20:18.537Z,4.5
2018-04-07T19:22:19.329Z,4.6
2018-04-07T19:24:19.142Z,4.1
2018-04-07T19:26:18.792Z,4.3
2018-04-07T19:28:18.640Z,4
2018-04-07T19:30:19.473Z,4.3
2018-04-07T19:32:19.305Z,3.9
2018-04-07T19:34:19.131Z,4.3
2018-04-07T19:36:19.249Z,3.8
2018-04-07T19:38:19.090Z,4.5
2018-04-07T19:40:19.364Z,4.1
2018-04-07T19:42:19.195Z,4.5
2018-04-07T19:44:18.988Z,4.2
2018-04-07T19:46:19.444Z,4.2
2018-04-07T19:48:19.264Z,4.6
2018-04-07T19:50:19.058Z,5.8
2018-04-07T19:52:18.873Z,4.3
2018-04-07T19:54:18.700Z,4.6
2018-04-07T19:56:18.934Z,4.3
2018-04-07T19:58:18.751Z,3.8
2018-04-07T20:00:18.564Z,4
2018-04-07T20:02:19.366Z,4.5
2018-04-07T20:04:19.181Z,4.2
2018-04-07T20:06:18.546Z,5
2018-04-07T20:08:19.356Z,5.5
2018-04-07T20:10:18.669Z,4.4
2018-04-07T20:12:19.459Z,4.6
2018-04-07T20:14:19.257Z,4.5
2018-04-07T20:16:18.924Z,4.4
2018-04-07T20:18:18.806Z,4.9
2018-04-07T20:20:18.615Z,3.8
2018-04-07T20:22:19.449Z,3.4
2018-04-07T20:24:19.255Z,4.3
2018-04-07T20:26:18.739Z,3.9
2018-04-07T20:28:18.540Z,3.8
2018-04-07T20:30:19.403Z,6.3
2018-04-07T20:32:18.963Z,4.2
2018-04-07T20:34:18.766Z,4
2018-04-07T20:36:18.904Z,3.8
2018-04-07T20:38:18.712Z,7.5
2018-04-07T20:40:19.041Z,5.1
2018-04-07T20:42:18.942Z,4.3
2018-04-07T20:44:18.740Z,4.8
2018-04-07T20:46:19.210Z,5.6
2018-04-07T20:48:19.047Z,4.9
2018-04-07T20:50:18.840Z,5.9
2018-04-07T20:52:18.622Z,6.2
2018-04-07T20:54:19.436Z,5.4
2018-04-07T20:56:18.827Z,4.7
2018-04-07T20:58:18.646Z,5
2018-04-07T21:00:19.455Z,3.8
2018-04-07T21:02:19.248Z,4.6
2018-04-07T21:04:19.055Z,4
2018-04-07T21:06:19.383Z,10.7
2018-04-07T21:08:19.161Z,7
2018-04-07T21:10:19.497Z,13.5
2018-04-07T21:12:19.340Z,5.3
2018-04-07T21:14:19.179Z,4.6
2018-04-07T21:16:18.764Z,3.9
2018-04-07T21:18:18.648Z,3.9
2018-04-07T21:20:19.456Z,5.2
2018-04-07T21:22:19.279Z,4.3
2018-04-07T21:24:19.089Z,4.7
2018-04-07T21:26:19.341Z,4.5
2018-04-07T21:28:19.170Z,4.5
2018-04-07T21:30:19.018Z,4.5
2018-04-07T21:32:18.844Z,4.6
2018-04-07T21:34:18.625Z,4
2018-04-07T21:36:19.401Z,3.9
2018-04-07T21:38:19.211Z,4
2018-04-07T21:40:19.501Z,3.9
2018-04-07T21:42:19.291Z,3.8
2018-04-07T21:44:19.084Z,3.5
2018-04-07T21:46:18.697Z,3.7
2018-04-07T21:48:19.485Z,4.1
2018-04-07T21:50:19.319Z,3.4
2018-04-07T21:52:19.119Z,4
2018-04-07T21:54:18.907Z,3.6
2018-04-07T21:56:18.644Z,3.7
2018-04-07T21:58:19.413Z,3.3
2018-04-07T22:00:19.230Z,3.8
2018-04-07T22:02:19.032Z,4.4
2018-04-07T22:04:18.842Z,3.7
2018-04-07T22:06:18.584Z,3.5
2018-04-07T22:08:19.371Z,3.3
2018-04-07T22:10:18.644Z,3.9
2018-04-07T22:12:19.446Z,3.5
2018-04-07T22:14:19.278Z,4
2018-04-07T22:16:18.925Z,3.7
2018-04-07T22:18:18.786Z,3.6
2018-04-07T22:20:18.616Z,3.9
2018-04-07T22:22:19.401Z,3.6
2018-04-07T22:24:19.191Z,4.1
2018-04-07T22:26:19.329Z,4.1
2018-04-07T22:28:19.150Z,4.4
2018-04-07T22:30:18.999Z,4
2018-04-07T22:32:18.896Z,3.3
2018-04-07T22:34:18.702Z,3.6
2018-04-07T22:36:19.283Z,3.9
2018-04-07T22:38:19.092Z,3.4
2018-04-07T22:40:19.373Z,4.2
2018-04-07T22:42:19.186Z,3.7
2018-04-07T22:44:18.974Z,4
2018-04-07T22:46:19.419Z,4
2018-04-07T22:48:19.195Z,4.2
2018-04-07T22:50:19.005Z,3.8
2018-04-07T22:52:18.808Z,3.9
2018-04-07T22:54:18.612Z,3
2018-04-07T22:56:19.218Z,3.9
2018-04-07T22:58:19.044Z,2.8
2018-04-07T23:00:18.865Z,3.7
2018-04-07T23:02:18.649Z,3.5
2018-04-07T23:04:19.443Z,3.8
2018-04-07T23:06:18.748Z,3.7
2018-04-07T23:08:18.546Z,4.2
2018-04-07T23:10:18.829Z,3.2
2018-04-07T23:12:18.646Z,3.1
2018-04-07T23:14:19.428Z,3.6
2018-04-07T23:16:18.570Z,4.2
2018-04-07T23:18:19.436Z,4.1
2018-04-07T23:20:19.254Z,3.5
2018-04-07T23:22:19.045Z,3.8
2018-04-07T23:24:18.826Z,4
2018-04-07T23:26:19.182Z,4
2018-04-07T23:28:18.999Z,4.2
2018-04-07T23:30:18.789Z,3.3
2018-04-07T23:32:18.588Z,3.6
2018-04-07T23:34:19.379Z,4.5
2018-04-07T23:36:19.539Z,5
2018-04-07T23:38:19.358Z,3.9
2018-04-07T23:40:18.631Z,3.8
2018-04-07T23:42:19.421Z,4.2
2018-04-07T23:44:19.240Z,4.1
2018-04-07T23:46:19.043Z,4.5
2018-04-07T23:48:18.813Z,4.4
2018-04-07T23:50:18.584Z,4
2018-04-07T23:52:19.398Z,4.8
2018-04-07T23:54:19.177Z,4.8
2018-04-07T23:56:19.310Z,3.8
2018-04-07T23:58:19.117Z,5.1
